Time;durP1;ratioP1;P1;durP2;ratioP2;P2;SDS_P1;SDS_P2;PMS_P1;PMS_P2;Temp;Humidity;BMP_temperature;BMP_pressure;BME280_temperature;BME280_humidity;BME280_pressure;Samples;Min_cycle;Max_cycle;Signal;HPM_P1;HPM_P2
2022/03/23 00:00:14;;;;;;;21.48;14.38;;;;;;;;;;4996259;28;20137;-66
2022/03/23 00:02:42;;;;;;;20.48;13.90;;;;;;;;;;4996023;28;20146;-66
2022/03/23 00:05:09;;;;;;;21.23;13.38;;;;;;;;;;4996057;28;20042;-66
2022/03/23 00:07:36;;;;;;;22.83;14.32;;;;;;;;;;4996415;28;20563;-66
2022/03/23 00:10:05;;;;;;;21.98;15.05;;;;;;;;;;4996059;28;20423;-66
2022/03/23 00:12:32;;;;;;;19.95;13.45;;;;;;;;;;4996075;28;20050;-66
2022/03/23 00:14:59;;;;;;;19.88;13.20;;;;;;;;;;4996250;28;20109;-67
2022/03/23 00:17:26;;;;;;;21.52;13.95;;;;;;;;;;4996370;28;20406;-67
2022/03/23 00:19:54;;;;;;;19.35;13.00;;;;;;;;;;4996319;28;20129;-67
2022/03/23 00:22:26;;;;;;;23.17;14.27;;;;;;;;;;4996469;28;20042;-67
2022/03/23 00:24:56;;;;;;;23.05;14.00;;;;;;;;;;4995947;28;20129;-65
2022/03/23 00:27:23;;;;;;;19.77;12.65;;;;;;;;;;4995646;28;20046;-66
2022/03/23 00:29:50;;;;;;;21.83;12.52;;;;;;;;;;4995244;28;20392;-66
2022/03/23 00:32:17;;;;;;;16.95;12.23;;;;;;;;;;4995696;28;20053;-68
2022/03/23 00:34:44;;;;;;;16.70;11.82;;;;;;;;;;4996783;28;20527;-66
2022/03/23 00:37:13;;;;;;;21.08;12.77;;;;;;;;;;4995899;28;20057;-66
2022/03/23 00:39:40;;;;;;;18.42;11.68;;;;;;;;;;4995864;28;20133;-66
2022/03/23 00:42:07;;;;;;;16.63;11.00;;;;;;;;;;4995720;28;20047;-67
2022/03/23 00:44:34;;;;;;;20.95;13.82;;;;;;;;;;4995873;28;20137;-65
2022/03/23 00:47:01;;;;;;;19.38;12.13;;;;;;;;;;4995710;28;20133;-66
2022/03/23 00:49:28;;;;;;;16.83;11.88;;;;;;;;;;4995592;28;20102;-66
2022/03/23 00:51:56;;;;;;;19.60;10.98;;;;;;;;;;4995758;28;20054;-67
2022/03/23 00:54:24;;;;;;;17.85;11.00;;;;;;;;;;4995808;28;20112;-66
2022/03/23 00:56:51;;;;;;;15.35;10.98;;;;;;;;;;4996428;28;20086;-65
2022/03/23 00:59:19;;;;;;;16.60;11.18;;;;;;;;;;4996210;28;20133;-66
2022/03/23 01:01:46;;;;;;;15.98;10.38;;;;;;;;;;4995863;28;20046;-66
2022/03/23 01:04:13;;;;;;;16.55;10.25;;;;;;;;;;4995955;28;20125;-66
2022/03/23 01:06:40;;;;;;;16.70;9.95;;;;;;;;;;4995640;28;20058;-66
2022/03/23 01:09:07;;;;;;;14.80;10.50;;;;;;;;;;4995900;28;20050;-65
2022/03/23 01:11:37;;;;;;;16.52;10.52;;;;;;;;;;4995549;28;20053;-65
2022/03/23 01:14:04;;;;;;;14.25;10.20;;;;;;;;;;4996028;28;20483;-65
2022/03/23 01:16:32;;;;;;;13.27;9.35;;;;;;;;;;4995634;28;20046;-67
2022/03/23 01:18:59;;;;;;;15.85;11.10;;;;;;;;;;4995348;28;20050;-66
2022/03/23 01:21:26;;;;;;;13.70;9.52;;;;;;;;;;4995549;28;20050;-65
2022/03/23 01:23:53;;;;;;;16.55;9.80;;;;;;;;;;4995381;28;20487;-66
2022/03/23 01:26:20;;;;;;;15.95;9.63;;;;;;;;;;4995886;28;20129;-67
2022/03/23 01:28:48;;;;;;;17.75;9.70;;;;;;;;;;4995107;28;20519;-66
2022/03/23 01:31:15;;;;;;;12.77;9.18;;;;;;;;;;4995379;28;20466;-67
2022/03/23 01:33:42;;;;;;;13.15;8.88;;;;;;;;;;4995312;28;20468;-66
2022/03/23 01:36:10;;;;;;;13.95;9.23;;;;;;;;;;4995741;28;20129;-66
2022/03/23 01:38:37;;;;;;;13.55;9.30;;;;;;;;;;4995086;28;20129;-66
2022/03/23 01:41:04;;;;;;;14.70;9.05;;;;;;;;;;4995540;28;20050;-66
2022/03/23 01:43:33;;;;;;;17.05;9.43;;;;;;;;;;4994852;28;20514;-66
2022/03/23 01:46:02;;;;;;;16.38;9.65;;;;;;;;;;4994746;28;20065;-67
2022/03/23 01:48:28;;;;;;;14.27;9.00;;;;;;;;;;4995134;28;20057;-66
2022/03/23 01:50:55;;;;;;;16.23;10.32;;;;;;;;;;4994802;28;20042;-66
2022/03/23 01:53:22;;;;;;;13.00;8.95;;;;;;;;;;4994882;28;20515;-66
2022/03/23 01:55:50;;;;;;;13.82;8.80;;;;;;;;;;4994840;28;20042;-66
2022/03/23 01:58:20;;;;;;;16.17;10.63;;;;;;;;;;4994125;28;20482;-67
2022/03/23 02:00:47;;;;;;;13.68;9.95;;;;;;;;;;4994927;28;20498;-66
2022/03/23 02:03:15;;;;;;;17.95;11.35;;;;;;;;;;4994495;28;20050;-66
2022/03/23 02:05:42;;;;;;;18.65;11.45;;;;;;;;;;4994692;28;20129;-65
2022/03/23 02:08:11;;;;;;;14.95;9.68;;;;;;;;;;4994758;28;20509;-66
2022/03/23 02:10:38;;;;;;;17.15;10.85;;;;;;;;;;4994354;28;20125;-67
2022/03/23 02:13:05;;;;;;;18.40;11.80;;;;;;;;;;4994269;28;20046;-66
2022/03/23 02:15:32;;;;;;;18.70;12.00;;;;;;;;;;4994285;28;20474;-66
2022/03/23 02:17:59;;;;;;;17.48;11.35;;;;;;;;;;4994168;28;20396;-67
2022/03/23 02:20:28;;;;;;;18.80;12.27;;;;;;;;;;4994289;28;20460;-67
2022/03/23 02:22:57;;;;;;;18.10;12.55;;;;;;;;;;4994396;28;20535;-67
2022/03/23 02:25:25;;;;;;;21.88;13.25;;;;;;;;;;4994425;28;20137;-67
2022/03/23 02:27:54;;;;;;;19.50;11.88;;;;;;;;;;4994014;28;20563;-67
2022/03/23 02:30:22;;;;;;;19.70;13.48;;;;;;;;;;4994342;28;20057;-67
2022/03/23 02:32:49;;;;;;;19.75;12.85;;;;;;;;;;4994401;28;20050;-67
2022/03/23 02:35:16;;;;;;;19.17;12.35;;;;;;;;;;4993921;28;20078;-66
2022/03/23 02:37:43;;;;;;;20.13;12.32;;;;;;;;;;4994059;28;20050;-68
2022/03/23 02:40:12;;;;;;;18.58;11.95;;;;;;;;;;4993376;28;20054;-66
2022/03/23 02:42:40;;;;;;;20.13;12.32;;;;;;;;;;4993864;28;20042;-68
2022/03/23 02:45:10;;;;;;;19.35;11.55;;;;;;;;;;4994514;28;20054;-66
2022/03/23 02:47:37;;;;;;;16.33;10.10;;;;;;;;;;4994731;28;20137;-67
2022/03/23 02:50:05;;;;;;;18.00;9.93;;;;;;;;;;4993660;28;20060;-67
2022/03/23 02:52:32;;;;;;;14.57;8.68;;;;;;;;;;4994269;28;20129;-66
2022/03/23 03:03:49;;;;;;;11.75;8.38;;;;;;;;;;4994187;28;20095;-67
2022/03/23 03:06:16;;;;;;;12.82;9.23;;;;;;;;;;4994375;28;20057;-67
2022/03/23 03:08:47;;;;;;;12.75;8.65;;;;;;;;;;4992507;28;20453;-65
2022/03/23 03:11:14;;;;;;;;;;;;;;;;;;4993876;28;20042;-67
2022/03/23 03:13:44;;;;;;;15.13;8.75;;;;;;;;;;4993814;28;20020;-66
2022/03/23 03:16:11;;;;;;;14.07;9.30;;;;;;;;;;4993945;28;20078;-69
2022/03/23 03:18:38;;;;;;;13.05;7.97;;;;;;;;;;4993757;28;20046;-66
2022/03/23 03:21:06;;;;;;;14.38;8.18;;;;;;;;;;4993589;28;20055;-65
2022/03/23 03:23:33;;;;;;;14.85;8.60;;;;;;;;;;4993490;28;20046;-67
2022/03/23 03:26:05;;;;;;;17.08;9.15;;;;;;;;;;4993315;28;20052;-67
2022/03/23 03:28:32;;;;;;;17.35;8.75;;;;;;;;;;4993199;28;20145;-67
2022/03/23 03:31:01;;;;;;;15.52;9.15;;;;;;;;;;4993244;28;20089;-67
2022/03/23 03:33:28;;;;;;;13.57;8.18;;;;;;;;;;4993364;28;20093;-67
2022/03/23 03:35:55;;;;;;;13.02;8.43;;;;;;;;;;4993571;28;20141;-67
2022/03/23 03:38:22;;;;;;;15.63;8.68;;;;;;;;;;4993239;28;20054;-64
2022/03/23 03:40:49;;;;;;;14.32;8.35;;;;;;;;;;4993532;28;20138;-67
2022/03/23 03:43:17;;;;;;;17.42;9.57;;;;;;;;;;4993414;28;20125;-66
2022/03/23 03:45:45;;;;;;;14.05;8.65;;;;;;;;;;4993210;28;20057;-66
2022/03/23 03:48:14;;;;;;;14.27;8.80;;;;;;;;;;4993266;28;20105;-66
2022/03/23 03:50:41;;;;;;;14.75;9.68;;;;;;;;;;4993115;28;20050;-66
2022/03/23 03:53:09;;;;;;;17.25;8.15;;;;;;;;;;4993302;28;20056;-67
2022/03/23 03:55:36;;;;;;;13.93;9.27;;;;;;;;;;4993758;28;20058;-66
2022/03/23 03:58:03;;;;;;;14.50;9.60;;;;;;;;;;4993166;28;20088;-66
2022/03/23 04:00:30;;;;;;;12.73;8.90;;;;;;;;;;4992638;28;20054;-65
2022/03/23 04:02:57;;;;;;;15.30;9.32;;;;;;;;;;4993282;28;20046;-67
2022/03/23 04:05:25;;;;;;;14.93;9.35;;;;;;;;;;4993098;28;20065;-67
2022/03/23 04:07:52;;;;;;;15.68;9.15;;;;;;;;;;4992938;28;20054;-67
2022/03/23 04:10:19;;;;;;;17.38;9.63;;;;;;;;;;4992505;28;20065;-66
2022/03/23 04:12:46;;;;;;;15.68;8.95;;;;;;;;;;4992814;28;20076;-66
2022/03/23 04:15:14;;;;;;;14.52;8.40;;;;;;;;;;4992846;28;20047;-66
2022/03/23 04:17:41;;;;;;;13.18;8.63;;;;;;;;;;4993228;28;20050;-66
2022/03/23 04:20:09;;;;;;;11.90;7.88;;;;;;;;;;4994004;28;20054;-67
2022/03/23 04:22:39;;;;;;;14.90;9.10;;;;;;;;;;5002458;23;20053;-62
2022/03/23 04:25:08;;;;;;;15.93;8.00;;;;;;;;;;4974595;28;20150;-59
2022/03/23 04:27:35;;;;;;;16.25;8.73;;;;;;;;;;4976035;28;20050;-59
2022/03/23 04:30:02;;;;;;;13.75;8.00;;;;;;;;;;4975578;28;20150;-59
2022/03/23 04:32:29;;;;;;;12.35;8.07;;;;;;;;;;4976431;28;20086;-59
2022/03/23 04:34:56;;;;;;;11.95;7.75;;;;;;;;;;4975425;28;20051;-59
2022/03/23 04:37:23;;;;;;;16.25;8.50;;;;;;;;;;4975981;28;20085;-61
2022/03/23 04:39:51;;;;;;;15.32;9.38;;;;;;;;;;4975542;28;20057;-60
2022/03/23 04:42:18;;;;;;;15.82;8.77;;;;;;;;;;4975766;28;20051;-60
2022/03/23 04:44:45;;;;;;;12.38;8.00;;;;;;;;;;4975453;28;20082;-59
2022/03/23 04:47:12;;;;;;;14.18;8.13;;;;;;;;;;4975511;28;20139;-60
2022/03/23 04:49:40;;;;;;;14.38;8.25;;;;;;;;;;4975251;28;20051;-60
2022/03/23 04:52:07;;;;;;;13.02;7.80;;;;;;;;;;4975536;28;20152;-60
2022/03/23 04:54:34;;;;;;;12.80;7.75;;;;;;;;;;4975262;28;20097;-60
2022/03/23 04:57:03;;;;;;;17.05;7.88;;;;;;;;;;4975567;28;20051;-60
2022/03/23 04:59:30;;;;;;;11.48;7.60;;;;;;;;;;4975409;28;20411;-60
2022/03/23 05:01:58;;;;;;;13.57;7.63;;;;;;;;;;4975394;28;20051;-60
2022/03/23 05:04:25;;;;;;;11.77;7.82;;;;;;;;;;4975143;28;20057;-60
2022/03/23 05:06:55;;;;;;;12.80;8.38;;;;;;;;;;4974972;28;20086;-60
2022/03/23 05:09:22;;;;;;;12.87;8.10;;;;;;;;;;4975380;28;20083;-60
2022/03/23 05:11:49;;;;;;;14.35;8.35;;;;;;;;;;4975045;28;20051;-60
2022/03/23 05:14:17;;;;;;;15.45;8.10;;;;;;;;;;4975147;28;20046;-59
2022/03/23 05:16:44;;;;;;;13.45;7.40;;;;;;;;;;4975000;28;20065;-60
2022/03/23 05:19:11;;;;;;;15.15;8.73;;;;;;;;;;4975097;28;20151;-60
2022/03/23 05:21:39;;;;;;;14.07;8.07;;;;;;;;;;4974909;28;20097;-59
2022/03/23 05:24:06;;;;;;;13.90;7.75;;;;;;;;;;4975074;28;20058;-60
2022/03/23 05:26:33;;;;;;;14.48;7.93;;;;;;;;;;4975065;28;20057;-59
2022/03/23 05:29:00;;;;;;;11.70;7.32;;;;;;;;;;4974903;28;20058;-59
2022/03/23 05:31:29;;;;;;;11.60;7.60;;;;;;;;;;4973990;28;20057;-60
2022/03/23 05:33:56;;;;;;;12.43;7.90;;;;;;;;;;4974908;28;20061;-60
2022/03/23 05:36:23;;;;;;;15.93;8.82;;;;;;;;;;4974609;28;20082;-59
2022/03/23 05:38:50;;;;;;;17.67;11.57;;;;;;;;;;4974677;28;20109;-57
2022/03/23 05:41:17;;;;;;;21.35;13.07;;;;;;;;;;4974734;28;20050;-59
2022/03/23 05:43:44;;;;;;;21.17;12.50;;;;;;;;;;4974691;28;20135;-58
2022/03/23 05:46:11;;;;;;;21.75;13.30;;;;;;;;;;4974149;28;20054;-60
2022/03/23 05:48:40;;;;;;;20.02;13.30;;;;;;;;;;4974630;28;20055;-60
2022/03/23 05:51:07;;;;;;;22.48;13.35;;;;;;;;;;4974520;28;20485;-60
2022/03/23 05:53:36;;;;;;;24.27;13.45;;;;;;;;;;4974543;28;20121;-59
2022/03/23 05:56:04;;;;;;;23.13;13.75;;;;;;;;;;4974194;28;20055;-59
2022/03/23 05:58:31;;;;;;;22.20;12.57;;;;;;;;;;4974508;28;20059;-59
2022/03/23 06:00:58;;;;;;;22.25;12.02;;;;;;;;;;4974314;28;20051;-60
2022/03/23 06:03:25;;;;;;;21.48;13.05;;;;;;;;;;4974367;28;20090;-60
2022/03/23 06:05:54;;;;;;;24.13;13.05;;;;;;;;;;4973803;28;20126;-60
2022/03/23 06:08:21;;;;;;;20.73;11.73;;;;;;;;;;4974481;28;20046;-60
2022/03/23 06:10:49;;;;;;;23.50;12.38;;;;;;;;;;4974283;28;20138;-60
2022/03/23 06:13:16;;;;;;;19.63;11.63;;;;;;;;;;4974214;28;20530;-62
2022/03/23 06:15:43;;;;;;;22.98;12.85;;;;;;;;;;4973948;28;20051;-58
2022/03/23 06:18:10;;;;;;;19.20;11.77;;;;;;;;;;4974525;28;20067;-59
2022/03/23 06:20:37;;;;;;;20.88;11.13;;;;;;;;;;4973741;28;20058;-59
2022/03/23 06:23:06;;;;;;;16.13;9.98;;;;;;;;;;4974161;28;20053;-60
2022/03/23 06:25:33;;;;;;;14.48;8.82;;;;;;;;;;4973654;28;20053;-60
2022/03/23 06:28:00;;;;;;;15.60;9.35;;;;;;;;;;4973857;28;20626;-59
2022/03/23 06:30:27;;;;;;;15.05;9.23;;;;;;;;;;4973711;28;20054;-60
2022/03/23 06:32:54;;;;;;;15.23;8.95;;;;;;;;;;4973876;28;20057;-60
2022/03/23 06:35:22;;;;;;;15.70;8.73;;;;;;;;;;4973631;28;20122;-59
2022/03/23 06:37:49;;;;;;;15.60;8.93;;;;;;;;;;4973759;28;20500;-58
2022/03/23 06:40:18;;;;;;;16.00;8.93;;;;;;;;;;4973492;28;20061;-59
2022/03/23 06:42:45;;;;;;;15.75;9.38;;;;;;;;;;4973273;28;20062;-60
2022/03/23 06:45:12;;;;;;;14.82;8.68;;;;;;;;;;4973146;28;20109;-59
2022/03/23 06:47:39;;;;;;;14.40;9.35;;;;;;;;;;4982207;28;20055;-60
2022/03/23 06:50:08;;;;;;;15.25;9.27;;;;;;;;;;4983100;28;20061;-60
2022/03/23 06:52:36;;;;;;;15.27;9.43;;;;;;;;;;4982933;28;20499;-60
2022/03/23 06:55:03;;;;;;;15.05;9.05;;;;;;;;;;4982643;28;20046;-60
2022/03/23 06:57:31;;;;;;;11.98;8.77;;;;;;;;;;4982718;28;20047;-59
2022/03/23 06:59:58;;;;;;;15.27;9.40;;;;;;;;;;4981573;28;20050;-58
2022/03/23 07:02:25;;;;;;;16.92;9.57;;;;;;;;;;4981343;28;20055;-61
2022/03/23 07:04:53;;;;;;;15.23;9.15;;;;;;;;;;4981344;28;20069;-59
2022/03/23 07:07:20;;;;;;;17.80;10.07;;;;;;;;;;4981648;28;20054;-59
2022/03/23 07:09:46;;;;;;;14.77;9.30;;;;;;;;;;4981969;28;20713;-58
2022/03/23 07:12:13;;;;;;;14.00;9.25;;;;;;;;;;4982432;28;20079;-59
2022/03/23 07:14:42;;;;;;;14.65;8.95;;;;;;;;;;4982817;28;20115;-58
2022/03/23 07:17:09;;;;;;;13.80;9.07;;;;;;;;;;4983567;28;20078;-59
2022/03/23 07:19:37;;;;;;;16.45;8.82;;;;;;;;;;4982820;28;20055;-57
2022/03/23 07:22:04;;;;;;;15.30;9.88;;;;;;;;;;4982635;28;20088;-60
2022/03/23 07:24:32;;;;;;;15.57;9.40;;;;;;;;;;4983282;28;20062;-59
2022/03/23 07:26:59;;;;;;;16.50;9.07;;;;;;;;;;4982337;28;20377;-59
2022/03/23 07:29:26;;;;;;;17.13;9.77;;;;;;;;;;4982603;28;20059;-60
2022/03/23 07:31:55;;;;;;;14.75;9.80;;;;;;;;;;4981812;28;20058;-60
2022/03/23 07:34:22;;;;;;;12.90;8.82;;;;;;;;;;4981483;28;20081;-59
2022/03/23 07:36:49;;;;;;;14.75;9.00;;;;;;;;;;4981190;28;20461;-59
2022/03/23 07:39:20;;;;;;;15.18;10.20;;;;;;;;;;4981731;28;20097;-60
2022/03/23 07:41:52;;;;;;;17.27;10.57;;;;;;;;;;4981776;28;20054;-60
2022/03/23 07:44:19;;;;;;;14.90;9.50;;;;;;;;;;4982106;28;20051;-60
2022/03/23 07:46:46;;;;;;;18.42;11.48;;;;;;;;;;4982318;28;20492;-59
2022/03/23 07:49:16;;;;;;;18.23;11.60;;;;;;;;;;4982702;28;20051;-60
2022/03/23 07:51:46;;;;;;;15.27;10.00;;;;;;;;;;4982178;28;20050;-60
2022/03/23 07:54:13;;;;;;;17.52;10.80;;;;;;;;;;4981649;28;20078;-60
2022/03/23 07:56:40;;;;;;;16.10;10.05;;;;;;;;;;4986023;28;20050;-60
2022/03/23 07:59:07;;;;;;;14.30;9.88;;;;;;;;;;4986994;28;20134;-60
2022/03/23 08:01:34;;;;;;;18.50;11.25;;;;;;;;;;4985565;28;20061;-59
2022/03/23 08:04:01;;;;;;;19.00;11.55;;;;;;;;;;4985599;28;20468;-60
2022/03/23 08:06:30;;;;;;;21.10;12.38;;;;;;;;;;4985649;28;20057;-60
2022/03/23 08:08:57;;;;;;;21.80;12.40;;;;;;;;;;4985636;28;20054;-59
2022/03/23 08:11:25;;;;;;;20.40;12.13;;;;;;;;;;4986172;28;20055;-59
2022/03/23 08:13:52;;;;;;;17.23;11.80;;;;;;;;;;4985797;28;20054;-60
2022/03/23 08:16:18;;;;;;;16.83;11.85;;;;;;;;;;4985596;28;20059;-60
2022/03/23 08:18:45;;;;;;;19.05;11.70;;;;;;;;;;4984947;28;20111;-60
2022/03/23 08:21:12;;;;;;;20.05;11.73;;;;;;;;;;4985022;28;20051;-61
2022/03/23 08:23:41;;;;;;;15.38;10.82;;;;;;;;;;4983993;28;20046;-61
2022/03/23 08:26:10;;;;;;;19.50;10.90;;;;;;;;;;4984769;28;20456;-60
2022/03/23 08:28:38;;;;;;;18.67;13.32;;;;;;;;;;4985679;28;20093;-61
2022/03/23 08:31:05;;;;;;;18.15;11.80;;;;;;;;;;4985344;28;20053;-60
2022/03/23 08:33:34;;;;;;;17.48;11.63;;;;;;;;;;4985162;28;20057;-60
2022/03/23 08:36:02;;;;;;;17.80;11.65;;;;;;;;;;4984947;28;20109;-60
2022/03/23 08:38:29;;;;;;;22.17;12.75;;;;;;;;;;4985413;28;20488;-61
2022/03/23 08:40:57;;;;;;;16.88;11.45;;;;;;;;;;4985802;28;20055;-61
2022/03/23 08:43:25;;;;;;;19.95;11.75;;;;;;;;;;4985595;28;20059;-61
2022/03/23 08:45:52;;;;;;;19.05;11.55;;;;;;;;;;4986398;28;20057;-61
2022/03/23 08:48:19;;;;;;;18.45;11.88;;;;;;;;;;4985578;28;20057;-61
2022/03/23 08:50:46;;;;;;;19.05;10.88;;;;;;;;;;4986123;28;20046;-60
2022/03/23 08:53:13;;;;;;;17.33;10.75;;;;;;;;;;4986917;28;20508;-61
2022/03/23 08:55:40;;;;;;;18.38;11.48;;;;;;;;;;4986639;28;20493;-60
2022/03/23 08:58:09;;;;;;;19.83;12.20;;;;;;;;;;4986627;28;20057;-61
2022/03/23 09:00:36;;;;;;;17.25;11.80;;;;;;;;;;4985913;28;20054;-60
2022/03/23 09:03:03;;;;;;;18.35;12.07;;;;;;;;;;4985872;28;20058;-60
2022/03/23 09:05:30;;;;;;;18.05;11.90;;;;;;;;;;4985402;28;20065;-61
2022/03/23 09:07:57;;;;;;;16.85;11.65;;;;;;;;;;4984125;28;20085;-61
2022/03/23 09:10:24;;;;;;;19.17;13.13;;;;;;;;;;4985834;28;20110;-61
2022/03/23 09:12:51;;;;;;;18.05;12.65;;;;;;;;;;4985501;28;20050;-61
2022/03/23 09:15:20;;;;;;;17.30;11.93;;;;;;;;;;4986238;28;20065;-60
2022/03/23 09:17:47;;;;;;;17.67;12.43;;;;;;;;;;4984785;28;20082;-60
2022/03/23 09:20:16;;;;;;;18.63;12.48;;;;;;;;;;4985631;28;20054;-60
2022/03/23 09:22:44;;;;;;;17.25;11.20;;;;;;;;;;4984458;28;20512;-60
2022/03/23 09:25:13;;;;;;;16.73;11.85;;;;;;;;;;4985582;28;20117;-58
2022/03/23 09:27:43;;;;;;;17.67;11.32;;;;;;;;;;4984922;28;20050;-60
2022/03/23 09:30:13;;;;;;;19.05;14.10;;;;;;;;;;4984776;28;20054;-60
2022/03/23 09:32:42;;;;;;;20.58;13.10;;;;;;;;;;4984916;28;20057;-60
2022/03/23 09:35:10;;;;;;;17.45;11.57;;;;;;;;;;4984583;28;20051;-60
2022/03/23 09:37:49;;;;;;;19.13;12.50;;;;;;;;;;4985601;28;20057;-60
2022/03/23 09:40:19;;;;;;;16.80;11.15;;;;;;;;;;4985241;28;20260;-60
2022/03/23 09:42:46;;;;;;;19.33;11.68;;;;;;;;;;4984793;28;20138;-59
2022/03/23 09:45:21;;;;;;;18.02;11.25;;;;;;;;;;4984852;28;20053;-59
2022/03/23 09:47:49;;;;;;;17.77;11.43;;;;;;;;;;4984666;28;20062;-59
2022/03/23 09:50:16;;;;;;;16.13;11.85;;;;;;;;;;4985079;28;20091;-60
2022/03/23 09:52:43;;;;;;;18.13;12.27;;;;;;;;;;4985588;28;20432;-60
2022/03/23 09:55:10;;;;;;;17.75;12.27;;;;;;;;;;4985130;28;20051;-61
2022/03/23 09:57:38;;;;;;;18.05;11.43;;;;;;;;;;4985062;28;20054;-61
2022/03/23 10:00:08;;;;;;;20.85;13.10;;;;;;;;;;4985493;28;20058;-60
2022/03/23 10:03:21;;;;;;;19.98;12.13;;;;;;;;;;4985123;28;20051;-61
2022/03/23 10:06:28;;;;;;;18.15;11.45;;;;;;;;;;4984770;28;20057;-61
2022/03/23 10:09:11;;;;;;;16.90;12.07;;;;;;;;;;4964659;28;20051;-60
2022/03/23 10:12:26;;;;;;;19.13;12.35;;;;;;;;;;4983966;28;20070;-60
2022/03/23 10:15:30;;;;;;;20.25;11.65;;;;;;;;;;4984638;28;20485;-61
2022/03/23 10:18:45;;;;;;;20.33;13.25;;;;;;;;;;4961827;28;20062;-61
2022/03/23 10:21:12;;;;;;;17.35;11.55;;;;;;;;;;4984293;28;20114;-61
2022/03/23 10:23:50;;;;;;;16.45;11.85;;;;;;;;;;4973882;28;20058;-61
2022/03/23 10:26:17;;;;;;;18.20;11.93;;;;;;;;;;4973444;28;20057;-60
2022/03/23 10:28:44;;;;;;;20.05;12.68;;;;;;;;;;4973765;28;20057;-61
2022/03/23 10:31:17;;;;;;;16.25;12.43;;;;;;;;;;4974122;28;20050;-61
2022/03/23 10:33:44;;;;;;;20.40;13.02;;;;;;;;;;4973698;28;20054;-61
2022/03/23 10:36:12;;;;;;;19.05;13.02;;;;;;;;;;4973562;28;20047;-61
2022/03/23 10:38:41;;;;;;;21.27;13.35;;;;;;;;;;4973617;28;20535;-61
2022/03/23 10:41:12;;;;;;;18.40;12.95;;;;;;;;;;4973478;28;20066;-61
2022/03/23 10:43:41;;;;;;;17.90;12.25;;;;;;;;;;4973478;28;20058;-63
2022/03/23 10:46:09;;;;;;;18.30;13.23;;;;;;;;;;4973237;28;20054;-63
2022/03/23 10:48:36;;;;;;;16.83;13.25;;;;;;;;;;4973490;28;20101;-60
2022/03/23 10:51:04;;;;;;;25.80;14.85;;;;;;;;;;4973916;28;20134;-61
2022/03/23 10:53:37;;;;;;;22.08;14.02;;;;;;;;;;4973186;28;20147;-61
2022/03/23 10:56:07;;;;;;;23.13;14.73;;;;;;;;;;4973311;28;20050;-61
2022/03/23 10:58:35;;;;;;;20.17;13.20;;;;;;;;;;4973170;28;20377;-61
2022/03/23 11:01:04;;;;;;;19.40;13.00;;;;;;;;;;4973288;28;20150;-61
2022/03/23 11:03:40;;;;;;;18.02;13.00;;;;;;;;;;4973478;28;20142;-61
2022/03/23 11:06:09;;;;;;;19.65;13.85;;;;;;;;;;4973074;28;20065;-61
2022/03/23 11:08:36;;;;;;;18.38;13.30;;;;;;;;;;4973211;28;20051;-61
2022/03/23 11:16:41;;;;;;;16.70;12.50;;;;;;;;;;4973071;28;20077;-61
2022/03/23 11:19:13;;;;;;;19.75;12.80;;;;;;;;;;4972951;28;20047;-61
2022/03/23 11:22:00;;;;;;;22.40;13.88;;;;;;;;;;4972974;28;20051;-60
2022/03/23 11:24:28;;;;;;;19.45;13.13;;;;;;;;;;4973145;28;20062;-60
2022/03/23 11:26:57;;;;;;;17.80;13.13;;;;;;;;;;4972752;28;20053;-62
2022/03/23 11:29:24;;;;;;;22.67;13.70;;;;;;;;;;4972599;28;20057;-62
2022/03/23 11:31:53;;;;;;;17.67;13.13;;;;;;;;;;4976965;28;20051;-62
2022/03/23 11:34:22;;;;;;;19.75;13.32;;;;;;;;;;4977020;28;20051;-63
2022/03/23 11:36:52;;;;;;;21.42;13.43;;;;;;;;;;4976714;28;20057;-62
2022/03/23 11:39:20;;;;;;;21.13;13.65;;;;;;;;;;4976810;28;20105;-62
2022/03/23 11:41:48;;;;;;;18.60;13.23;;;;;;;;;;4976750;28;20055;-62
2022/03/23 11:44:17;;;;;;;18.55;13.25;;;;;;;;;;4976543;28;20397;-62
2022/03/23 11:46:46;;;;;;;18.33;12.55;;;;;;;;;;4976654;28;20059;-62
2022/03/23 11:49:22;;;;;;;19.02;13.15;;;;;;;;;;4976435;28;20051;-62
2022/03/23 11:52:06;;;;;;;19.02;12.88;;;;;;;;;;4976686;28;20059;-61
2022/03/23 11:57:19;;;;;;;22.08;13.40;;;;;;;;;;4944239;28;20530;-63
2022/03/23 11:59:48;;;;;;;20.20;14.15;;;;;;;;;;4976261;28;20110;-63
2022/03/23 12:02:18;;;;;;;18.25;13.43;;;;;;;;;;4976289;28;20047;-63
2022/03/23 12:04:45;;;;;;;17.08;12.73;;;;;;;;;;4976477;28;20054;-62
2022/03/23 12:07:12;;;;;;;16.58;12.85;;;;;;;;;;4976269;28;20051;-63
2022/03/23 12:09:40;;;;;;;17.25;12.20;;;;;;;;;;4976073;28;20161;-63
2022/03/23 12:12:13;;;;;;;15.18;12.30;;;;;;;;;;4976446;28;20061;-63
2022/03/23 12:14:42;;;;;;;16.67;11.98;;;;;;;;;;4976064;28;20070;-63
2022/03/23 12:17:20;;;;;;;18.60;12.63;;;;;;;;;;4976253;28;20086;-63
2022/03/23 12:20:03;;;;;;;19.33;12.55;;;;;;;;;;4976248;28;20055;-63
2022/03/23 12:23:12;;;;;;;18.95;12.32;;;;;;;;;;4976361;28;20488;-62
2022/03/23 12:25:48;;;;;;;17.00;12.13;;;;;;;;;;4975807;28;20047;-63
2022/03/23 12:28:33;;;;;;;17.63;12.07;;;;;;;;;;4975829;28;20081;-60
2022/03/23 12:31:05;;;;;;;17.10;10.82;;;;;;;;;;4976037;28;20136;-64
2022/03/23 12:34:01;;;;;;;15.18;11.00;;;;;;;;;;4975965;28;20093;-62
2022/03/23 12:36:56;;;;;;;16.80;10.63;;;;;;;;;;4975948;28;20493;-62
2022/03/23 12:39:26;;;;;;;13.55;10.65;;;;;;;;;;4975124;28;20054;-61
2022/03/23 12:41:54;;;;;;;13.20;10.13;;;;;;;;;;4975538;28;20193;-61
2022/03/23 12:44:32;;;;;;;12.70;9.35;;;;;;;;;;4975934;28;20047;-62
2022/03/23 12:47:07;;;;;;;14.68;10.40;;;;;;;;;;4975811;28;20082;-61
2022/03/23 12:58:05;;;;;;;16.50;11.48;;;;;;;;;;4975724;28;20594;-63
2022/03/23 13:00:34;;;;;;;15.82;11.02;;;;;;;;;;4975601;28;20047;-61
2022/03/23 13:03:44;;;;;;;16.45;11.93;;;;;;;;;;4975564;28;20054;-62
2022/03/23 13:06:14;;;;;;;17.77;11.15;;;;;;;;;;4975224;28;20446;-62
2022/03/23 13:08:49;;;;;;;18.67;11.57;;;;;;;;;;4975522;28;20054;-63
2022/03/23 13:11:21;;;;;;;14.73;10.95;;;;;;;;;;4975622;28;20133;-63
2022/03/23 13:13:52;;;;;;;13.95;10.35;;;;;;;;;;4975317;28;20055;-62
2022/03/23 13:16:23;;;;;;;16.42;12.00;;;;;;;;;;4975177;28;20500;-62
2022/03/23 13:18:53;;;;;;;15.20;11.55;;;;;;;;;;4975197;28;20396;-63
2022/03/23 13:21:24;;;;;;;15.38;11.63;;;;;;;;;;4975262;28;20527;-61
2022/03/23 13:23:52;;;;;;;18.25;12.10;;;;;;;;;;4975458;28;20058;-61
2022/03/23 13:26:21;;;;;;;18.17;11.23;;;;;;;;;;4974877;28;20051;-61
2022/03/23 13:28:50;;;;;;;15.20;11.32;;;;;;;;;;4975029;28;20054;-63
2022/03/23 13:31:19;;;;;;;16.50;12.93;;;;;;;;;;4975096;28;20114;-62
2022/03/23 13:33:48;;;;;;;15.27;11.95;;;;;;;;;;4974646;28;20047;-62
2022/03/23 13:36:17;;;;;;;18.45;13.77;;;;;;;;;;4974529;28;20050;-63
2022/03/23 13:38:47;;;;;;;17.38;12.35;;;;;;;;;;4974669;28;20051;-62
2022/03/23 13:44:00;;;;;;;25.08;18.63;;;;;;;;;;4974862;28;19929;-64
2022/03/23 13:46:29;;;;;;;18.70;14.20;;;;;;;;;;4974371;28;20093;-63
2022/03/23 13:49:00;;;;;;;20.17;13.80;;;;;;;;;;4974486;28;20050;-63
2022/03/23 13:51:28;;;;;;;15.50;11.75;;;;;;;;;;4974489;28;20054;-62
2022/03/23 13:54:01;;;;;;;16.73;12.80;;;;;;;;;;4973718;28;20567;-62
2022/03/23 13:56:32;;;;;;;17.23;12.23;;;;;;;;;;4974076;28;20057;-60
2022/03/23 13:59:01;;;;;;;15.68;11.07;;;;;;;;;;4974121;28;20058;-62
2022/03/23 14:01:29;;;;;;;14.63;11.60;;;;;;;;;;4974219;28;20146;-64
2022/03/23 14:04:02;;;;;;;14.65;10.98;;;;;;;;;;4974015;28;20058;-62
2022/03/23 14:06:29;;;;;;;15.18;11.73;;;;;;;;;;4974069;28;20051;-62
2022/03/23 14:08:59;;;;;;;14.98;12.93;;;;;;;;;;4974017;28;20047;-62
2022/03/23 14:14:18;;;;;;;15.25;11.82;;;;;;;;;;4973827;28;20053;-62
2022/03/23 14:17:07;;;;;;;15.63;13.15;;;;;;;;;;4973668;28;20050;-62
2022/03/23 14:19:36;;;;;;;16.55;13.13;;;;;;;;;;4969734;28;20103;-62
2022/03/23 14:22:05;;;;;;;16.40;14.02;;;;;;;;;;4973974;28;20064;-62
2022/03/23 14:24:34;;;;;;;14.95;13.27;;;;;;;;;;4973749;28;20174;-63
2022/03/23 14:27:16;;;;;;;16.50;13.68;;;;;;;;;;4973517;28;20055;-62
2022/03/23 14:29:43;;;;;;;16.23;13.48;;;;;;;;;;4973580;28;20058;-62
2022/03/23 14:32:12;;;;;;;14.48;12.98;;;;;;;;;;4973751;28;20089;-61
2022/03/23 14:34:47;;;;;;;15.45;13.25;;;;;;;;;;4973442;28;20057;-62
2022/03/23 14:37:14;;;;;;;17.25;12.77;;;;;;;;;;4973603;28;20051;-63
2022/03/23 14:39:42;;;;;;;16.50;13.20;;;;;;;;;;4973449;28;20050;-62
2022/03/23 14:42:10;;;;;;;16.30;13.70;;;;;;;;;;4973593;28;20055;-62
2022/03/23 14:44:43;;;;;;;17.45;12.70;;;;;;;;;;4973838;28;20047;-62
2022/03/23 14:47:10;;;;;;;14.07;12.57;;;;;;;;;;4973486;28;20055;-62
2022/03/23 14:49:39;;;;;;;13.88;12.45;;;;;;;;;;4973451;28;20130;-62
2022/03/23 14:52:07;;;;;;;15.88;14.05;;;;;;;;;;4973666;28;20439;-62
2022/03/23 14:54:37;;;;;;;16.15;13.57;;;;;;;;;;4973293;28;20137;-62
2022/03/23 14:57:05;;;;;;;14.57;12.82;;;;;;;;;;4973554;28;20059;-62
2022/03/23 14:59:34;;;;;;;15.25;12.07;;;;;;;;;;4973479;28;20138;-65
2022/03/23 15:02:02;;;;;;;14.93;12.30;;;;;;;;;;4973653;28;20497;-62
2022/03/23 15:04:29;;;;;;;16.75;12.10;;;;;;;;;;4973108;28;20086;-62